createdAt,value
2018-08-25T00:03:17.247Z,65.39
2018-08-25T00:08:14.688Z,65.96
2018-08-25T00:13:12.059Z,65.75
2018-08-25T00:18:10.426Z,64.79
2018-08-25T00:23:08.079Z,63.81
2018-08-25T00:28:05.439Z,65.78
2018-08-25T00:33:02.831Z,66.78
2018-08-25T00:38:01.869Z,67.02
2018-08-25T00:42:59.355Z,65.85
2018-08-25T00:47:56.719Z,66.29
2018-08-25T00:52:54.090Z,65.13
2018-08-25T00:57:51.480Z,65.02
2018-08-25T01:02:48.916Z,64.90
2018-08-25T01:07:46.327Z,65.42
2018-08-25T01:12:43.731Z,64.59
2018-08-25T01:17:41.107Z,65.56
2018-08-25T01:22:38.496Z,64.63
2018-08-25T01:27:35.887Z,65.33
2018-08-25T01:32:33.279Z,65.14
2018-08-25T01:37:30.659Z,66.07
2018-08-25T01:42:28.035Z,66.55
2018-08-25T01:47:25.730Z,66.35
2018-08-25T01:52:23.103Z,65.92
2018-08-25T01:57:20.478Z,66.24
2018-08-25T02:02:17.876Z,65.78
2018-08-25T02:07:15.291Z,65.61
2018-08-25T02:12:12.670Z,65.23
2018-08-25T02:17:10.065Z,66.36
2018-08-25T02:22:07.448Z,66.66
2018-08-25T02:27:04.854Z,67.05
2018-08-25T02:32:02.247Z,67.57
2018-08-25T02:36:59.655Z,66.75
2018-08-25T02:41:57.052Z,66.81
2018-08-25T02:46:54.487Z,66.44
2018-08-25T02:51:51.967Z,66.33
2018-08-25T02:56:49.356Z,66.93
2018-08-25T03:01:46.723Z,66.56
2018-08-25T03:06:44.115Z,66.59
2018-08-25T03:11:41.495Z,66.24
2018-08-25T03:16:38.887Z,65.89
2018-08-25T03:21:37.439Z,66.39
2018-08-25T03:26:34.872Z,66.82
2018-08-25T03:31:32.471Z,65.62
2018-08-25T03:36:29.899Z,65.51
2018-08-25T03:41:27.364Z,65.51
2018-08-25T03:46:24.746Z,65.28
2018-08-25T03:51:22.658Z,65.02
2018-08-25T03:56:20.284Z,65.27
2018-08-25T04:01:17.694Z,64.51
2018-08-25T04:06:15.111Z,66.17
2018-08-25T04:11:12.507Z,64.80
2018-08-25T04:16:09.887Z,64.84
2018-08-25T04:21:07.304Z,64.56
2018-08-25T04:26:04.991Z,64.00
2018-08-25T04:31:02.374Z,63.85
2018-08-25T04:35:59.776Z,62.92
2018-08-25T04:40:57.164Z,63.56
2018-08-25T04:45:54.558Z,63.69
2018-08-25T04:50:52.019Z,62.93
2018-08-25T04:55:51.095Z,61.92
2018-08-25T05:00:48.508Z,62.80
2018-08-25T05:05:46.044Z,63.26
2018-08-25T05:10:43.443Z,67.51
2018-08-25T05:15:40.839Z,71.39
2018-08-25T05:20:38.233Z,73.07
2018-08-25T05:25:35.632Z,73.53
2018-08-25T05:30:33.375Z,79.70
2018-08-25T05:35:30.917Z,81.82
2018-08-25T05:40:29.714Z,84.28
2018-08-25T05:45:27.108Z,85.43
2018-08-25T05:50:24.506Z,85.70
2018-08-25T05:55:22.776Z,85.93
2018-08-25T06:00:20.195Z,85.95
2018-08-25T06:05:17.725Z,84.65
2018-08-25T06:10:15.120Z,84.29
2018-08-25T06:15:12.525Z,83.75
2018-08-25T06:20:10.988Z,84.10
2018-08-25T06:25:08.975Z,84.94
2018-08-25T06:30:06.525Z,83.16
2018-08-25T06:35:03.928Z,83.85
2018-08-25T06:40:01.383Z,84.42
2018-08-25T06:44:58.794Z,84.14
2018-08-25T06:49:57.262Z,86.82
2018-08-25T06:54:54.643Z,86.63
2018-08-25T06:59:52.949Z,86.76
2018-08-25T07:04:50.383Z,86.58
2018-08-25T07:09:47.768Z,87.08
2018-08-25T07:14:45.156Z,85.07
2018-08-25T07:19:43.577Z,84.96
2018-08-25T07:24:41.776Z,84.99
2018-08-25T07:29:40.783Z,85.09
2018-08-25T07:34:38.148Z,84.96
2018-08-25T07:39:35.541Z,84.62
2018-08-25T07:44:33.059Z,83.23
2018-08-25T07:49:34.222Z,84.65
2018-08-25T07:54:32.588Z,84.81
2018-08-25T07:59:30.017Z,82.23
2018-08-25T08:04:27.459Z,80.17
2018-08-25T08:09:24.859Z,80.18
2018-08-25T08:14:22.239Z,80.06
2018-08-25T08:19:24.337Z,79.15
2018-08-25T08:24:21.769Z,76.87
2018-08-25T08:29:19.236Z,76.56
2018-08-25T08:34:16.609Z,75.54
2018-08-25T08:39:14.020Z,75.00
2018-08-25T08:44:11.640Z,71.88
2018-08-25T08:49:10.352Z,72.45
2018-08-25T08:54:07.752Z,72.28
2018-08-25T08:59:05.159Z,73.62
2018-08-25T09:04:03.436Z,73.27
2018-08-25T09:09:00.869Z,71.27
2018-08-25T09:13:58.255Z,68.52
2018-08-25T09:18:55.683Z,67.67
2018-08-25T09:23:53.111Z,70.54
2018-08-25T09:28:51.387Z,69.93
2018-08-25T09:33:49.118Z,71.45
2018-08-25T09:38:46.615Z,78.82
2018-08-25T09:43:44.179Z,80.74
2018-08-25T09:48:41.604Z,82.73
2018-08-25T09:53:39.973Z,86.51
2018-08-25T09:58:37.313Z,88.78
2018-08-25T10:03:35.379Z,89.03
2018-08-25T10:08:32.790Z,88.16
2018-08-25T10:13:30.256Z,84.86
2018-08-25T10:18:27.652Z,84.27
2018-08-25T10:23:25.043Z,86.58
2018-08-25T10:28:22.775Z,86.44
2018-08-25T10:33:20.143Z,86.43
2018-08-25T10:38:17.522Z,85.27
2018-08-25T10:43:14.909Z,85.97
2018-08-25T10:48:12.335Z,83.93
2018-08-25T10:53:09.687Z,79.55
2018-08-25T10:58:07.615Z,78.97
2018-08-25T11:03:05.192Z,80.11
2018-08-25T11:08:02.680Z,77.78
2018-08-25T11:13:00.080Z,77.35
2018-08-25T11:17:57.657Z,74.24
2018-08-25T11:22:55.039Z,77.03
2018-08-25T11:27:52.468Z,74.96
2018-08-25T11:32:49.923Z,74.58
2018-08-25T11:37:47.949Z,69.47
2018-08-25T11:42:45.265Z,70.07
2018-08-25T11:47:42.658Z,69.76
2018-08-25T11:52:40.044Z,71.30
2018-08-25T11:57:37.450Z,70.35
2018-08-25T12:02:34.950Z,67.49
2018-08-25T12:07:32.388Z,67.44
2018-08-25T12:12:29.786Z,68.09
2018-08-25T12:17:27.361Z,64.30
2018-08-25T12:22:24.774Z,63.77
2018-08-25T12:27:22.232Z,59.09
2018-08-25T12:32:19.631Z,59.41
2018-08-25T12:37:20.569Z,56.47
2018-08-25T12:42:18.027Z,58.33
2018-08-25T12:47:15.478Z,61.07
2018-08-25T12:52:12.872Z,61.18
2018-08-25T12:57:10.275Z,59.74
2018-08-25T13:02:07.695Z,57.79
2018-08-25T13:07:05.216Z,58.07
2018-08-25T13:12:02.627Z,53.02
2018-08-25T13:17:00.024Z,55.44
2018-08-25T13:21:57.446Z,52.83
2018-08-25T13:26:54.826Z,52.98
2018-08-25T13:31:52.227Z,53.69
2018-08-25T13:36:49.619Z,54.42
2018-08-25T13:41:47.099Z,50.95
2018-08-25T13:46:44.494Z,52.77
2018-08-25T13:51:41.918Z,53.86
2018-08-25T13:56:39.307Z,54.91
2018-08-25T14:01:36.872Z,54.56
2018-08-25T14:06:34.283Z,54.59
2018-08-25T14:11:31.683Z,54.56
2018-08-25T14:16:29.133Z,55.12
2018-08-25T14:21:26.500Z,56.69
2018-08-25T14:26:23.909Z,72.91
2018-08-25T14:31:21.305Z,79.21
2018-08-25T14:36:18.839Z,84.51
2018-08-25T14:41:16.240Z,85.67
2018-08-25T14:46:14.579Z,84.95
2018-08-25T14:51:11.963Z,84.79
2018-08-25T14:56:09.384Z,83.14
2018-08-25T15:01:06.794Z,85.39
2018-08-25T15:06:04.183Z,84.63
2018-08-25T15:11:01.559Z,84.80
2018-08-25T15:15:58.980Z,84.72
2018-08-25T15:20:57.379Z,84.40
2018-08-25T15:25:54.796Z,82.74
2018-08-25T15:30:52.231Z,81.46
2018-08-25T15:35:49.621Z,82.92
2018-08-25T15:40:47.007Z,83.27
2018-08-25T15:45:44.583Z,83.11
2018-08-25T15:50:42.381Z,81.59
2018-08-25T15:55:39.851Z,79.27
2018-08-25T16:00:44.132Z,79.55
2018-08-25T16:05:48.291Z,78.62
2018-08-25T16:10:48.041Z,79.09
2018-08-25T16:15:46.172Z,79.77
2018-08-25T16:20:48.268Z,78.65
2018-08-25T16:25:46.343Z,78.94
2018-08-25T16:30:43.767Z,78.62
2018-08-25T16:35:42.895Z,78.78
2018-08-25T16:40:41.152Z,78.12
2018-08-25T16:45:38.543Z,78.14
2018-08-25T16:50:35.924Z,79.92
2018-08-25T16:55:33.327Z,81.43
2018-08-25T17:00:30.703Z,81.16
2018-08-25T17:05:28.124Z,77.75
2018-08-25T17:10:28.898Z,77.99
2018-08-25T17:15:26.816Z,80.85
2018-08-25T17:20:24.280Z,80.97
2018-08-25T17:25:21.720Z,82.24
2018-08-25T17:30:19.115Z,81.37
2018-08-25T17:35:18.163Z,81.38
2018-08-25T17:40:15.818Z,81.86
2018-08-25T17:45:13.360Z,82.16
2018-08-25T17:50:11.094Z,83.58
2018-08-25T17:55:08.559Z,83.81
2018-08-25T18:00:06.213Z,82.68
2018-08-25T18:05:04.172Z,83.52
2018-08-25T18:10:01.575Z,82.17
2018-08-25T18:14:58.979Z,81.66
2018-08-25T18:19:57.467Z,81.37
2018-08-25T18:24:54.951Z,80.76
2018-08-25T18:29:52.539Z,82.30
2018-08-25T18:34:49.945Z,80.57
2018-08-25T18:39:47.344Z,81.35
2018-08-25T18:44:45.099Z,80.81
2018-08-25T18:49:43.912Z,80.87
2018-08-25T18:54:41.367Z,81.55
2018-08-25T18:59:38.998Z,81.96
2018-08-25T19:04:36.396Z,81.79
2018-08-25T19:09:34.216Z,81.34
2018-08-25T19:14:32.655Z,82.59
2018-08-25T19:19:33.286Z,83.01
2018-08-25T19:24:30.820Z,83.63
2018-08-25T19:29:28.191Z,83.88
2018-08-25T19:34:25.590Z,82.72
2018-08-25T19:39:22.955Z,82.78
2018-08-25T19:44:20.923Z,82.20
2018-08-25T19:49:25.693Z,81.51
2018-08-25T19:54:23.145Z,81.48
2018-08-25T19:59:22.139Z,82.15
2018-08-25T20:04:19.519Z,81.27
2018-08-25T20:09:16.921Z,80.85
2018-08-25T20:14:14.291Z,81.90
2018-08-25T20:19:11.721Z,82.51
2018-08-25T20:24:09.099Z,83.06
2018-08-25T20:29:07.524Z,83.87
2018-08-25T20:34:05.483Z,83.23
2018-08-25T20:39:03.491Z,82.99
2018-08-25T20:44:00.911Z,83.70
2018-08-25T20:48:58.996Z,84.82
2018-08-25T20:53:56.488Z,84.79
2018-08-25T20:58:54.796Z,84.75
2018-08-25T21:03:52.167Z,85.20
2018-08-25T21:08:49.692Z,85.19
2018-08-25T21:13:47.634Z,84.99
2018-08-25T21:18:44.995Z,85.27
2018-08-25T21:23:43.223Z,85.61
2018-08-25T21:28:40.579Z,85.48
2018-08-25T21:33:38.883Z,85.92
2018-08-25T21:38:36.891Z,86.09
2018-08-25T21:43:34.501Z,85.96
2018-08-25T21:48:31.871Z,87.52
2018-08-25T21:53:29.235Z,88.92
2018-08-25T21:58:26.661Z,89.24
2018-08-25T22:03:24.999Z,90.10
2018-08-25T22:08:24.211Z,90.35
2018-08-25T22:13:21.803Z,89.63
2018-08-25T22:18:19.978Z,90.17
2018-08-25T22:23:17.373Z,90.31
2018-08-25T22:28:14.743Z,88.71
2018-08-25T22:33:12.199Z,89.02
2018-08-25T22:38:09.571Z,90.36
2018-08-25T22:43:06.963Z,90.50
2018-08-25T22:48:04.379Z,88.32
2018-08-25T22:53:01.762Z,89.21
2018-08-25T22:57:59.157Z,90.35
2018-08-25T23:02:56.529Z,91.14
2018-08-25T23:07:53.923Z,91.09
2018-08-25T23:12:51.675Z,91.89
2018-08-25T23:17:50.110Z,91.90
2018-08-25T23:22:47.483Z,88.71
2018-08-25T23:27:44.916Z,90.06
2018-08-25T23:32:42.317Z,90.82
2018-08-25T23:37:40.244Z,91.17
2018-08-25T23:42:37.615Z,91.23
2018-08-25T23:47:35.171Z,91.64
2018-08-25T23:52:35.508Z,92.24
2018-08-25T23:57:33.843Z,91.15
